createdAt,value
2018-07-13T19:12:14.252Z,25.7
2018-07-13T19:13:15.730Z,25.6
2018-07-13T19:14:17.089Z,25.6
2018-07-13T19:15:18.602Z,25.6
2018-07-13T19:16:19.929Z,25.4
2018-07-13T19:17:21.390Z,25.4
2018-07-13T19:18:22.736Z,25.4
2018-07-13T19:19:24.220Z,25.4
2018-07-13T19:20:25.571Z,25.4
2018-07-13T19:21:26.896Z,25.3
2018-07-13T19:22:28.262Z,25.4
2018-07-13T19:23:29.531Z,25.3
2018-07-13T19:24:30.855Z,25.3
2018-07-13T19:25:32.171Z,25.3
2018-07-13T19:26:33.498Z,25.3
2018-07-13T19:27:34.817Z,25.2
2018-07-13T19:28:36.143Z,25.2
2018-07-13T19:29:37.468Z,25.2
2018-07-13T19:30:38.918Z,25.1
2018-07-13T19:31:40.076Z,25.1
2018-07-13T19:32:41.396Z,25.0
2018-07-13T19:33:42.721Z,25.0
2018-07-13T19:34:44.140Z,24.9
2018-07-13T19:35:45.582Z,25.0
2018-07-13T19:36:46.909Z,25.0
2018-07-13T19:37:48.262Z,25.0
2018-07-13T19:38:49.724Z,24.9
2018-07-13T19:39:51.092Z,24.9
2018-07-13T19:40:52.431Z,24.9
2018-07-13T19:41:53.749Z,24.9
2018-07-13T19:42:55.067Z,24.9
2018-07-13T19:43:56.383Z,24.8
2018-07-13T19:44:57.696Z,24.8
2018-07-13T19:45:59.012Z,24.8
2018-07-13T19:47:00.341Z,24.8
2018-07-13T19:48:01.662Z,24.7
2018-07-13T19:49:02.977Z,24.7
2018-07-13T19:50:04.293Z,24.8
2018-07-13T19:51:05.602Z,24.8
2018-07-13T19:52:06.932Z,24.7
2018-07-13T19:53:08.239Z,24.8
2018-07-13T19:54:09.557Z,24.8
2018-07-13T19:55:10.876Z,24.8
2018-07-13T19:56:12.192Z,24.7
2018-07-13T19:57:13.791Z,24.7
2018-07-13T19:58:15.036Z,24.6
2018-07-13T19:59:16.407Z,24.7
2018-07-13T20:00:18.566Z,24.7
2018-07-13T20:01:19.957Z,24.6
2018-07-13T20:02:21.276Z,24.6
2018-07-13T20:03:22.601Z,24.5
2018-07-13T20:04:23.915Z,24.7
2018-07-13T20:05:25.243Z,24.7
2018-07-13T20:06:26.553Z,24.6
2018-07-13T20:07:27.866Z,24.7
2018-07-13T20:08:29.205Z,24.6
2018-07-13T20:09:30.547Z,24.5
2018-07-13T20:10:31.861Z,24.5
2018-07-13T20:11:33.187Z,24.5
2018-07-13T20:12:34.508Z,24.5
2018-07-13T20:13:35.822Z,24.6
2018-07-13T20:14:38.113Z,24.5
2018-07-13T20:15:39.431Z,24.5
2018-07-13T20:16:40.776Z,24.5
2018-07-13T20:17:42.070Z,24.5
2018-07-13T20:18:43.497Z,24.5
2018-07-13T20:19:44.836Z,24.5
2018-07-13T20:20:46.303Z,24.5
2018-07-13T20:21:47.727Z,24.4
2018-07-13T20:22:49.061Z,24.4
2018-07-13T20:23:50.525Z,24.3
2018-07-13T20:24:51.848Z,24.4
2018-07-13T20:25:53.224Z,24.4
2018-07-13T20:26:54.553Z,24.3
2018-07-13T20:27:55.868Z,24.2
2018-07-13T20:28:57.187Z,24.3
2018-07-13T20:29:58.511Z,24.3
2018-07-13T20:30:59.821Z,24.2
2018-07-13T20:32:01.146Z,24.2
2018-07-13T20:33:02.458Z,24.2
2018-07-13T20:34:03.772Z,24.1
2018-07-13T20:35:05.087Z,24.1
2018-07-13T20:36:06.403Z,24.1
2018-07-13T20:37:07.724Z,24.1
2018-07-13T20:38:09.046Z,24.0
2018-07-13T20:39:10.366Z,24.0
2018-07-13T20:40:11.681Z,24.0
2018-07-13T20:41:13.021Z,24.0
2018-07-13T20:42:14.431Z,24.0
2018-07-13T20:43:15.802Z,24.0
2018-07-13T20:44:17.161Z,24.0
2018-07-13T20:45:18.491Z,23.9
2018-07-13T20:46:19.948Z,24.0
2018-07-13T20:47:21.255Z,23.9
2018-07-13T20:48:22.578Z,24.0
2018-07-13T20:49:23.927Z,23.9
2018-07-13T20:50:25.241Z,23.9
2018-07-13T20:51:26.548Z,23.9
2018-07-13T20:52:27.883Z,23.9
2018-07-13T20:53:29.153Z,23.9
2018-07-13T20:54:30.469Z,24.0
2018-07-13T20:55:31.796Z,23.9
2018-07-13T20:56:33.112Z,24.0
2018-07-13T20:57:34.435Z,23.9
2018-07-13T20:58:35.755Z,23.9
2018-07-13T20:59:37.063Z,23.9
2018-07-13T21:00:38.378Z,23.8
2018-07-13T21:01:39.693Z,23.8
2018-07-13T21:02:41.030Z,23.9
2018-07-13T21:03:42.344Z,23.7
2018-07-13T21:04:44.303Z,23.8
2018-07-13T21:05:45.634Z,23.7
2018-07-13T21:06:46.973Z,23.6
2018-07-13T21:07:48.322Z,23.6
2018-07-13T21:08:49.677Z,23.6
2018-07-13T21:09:51.110Z,23.6
2018-07-13T21:10:52.452Z,23.5
2018-07-13T21:11:53.772Z,23.4
2018-07-13T21:12:55.085Z,23.4
2018-07-13T21:13:56.417Z,23.4
2018-07-13T21:14:57.723Z,23.4
2018-07-13T21:15:59.058Z,23.3
2018-07-13T21:17:00.358Z,23.3
2018-07-13T21:18:01.682Z,23.3
2018-07-13T21:19:03.004Z,23.3
2018-07-13T21:20:04.358Z,23.2
2018-07-13T21:21:05.656Z,23.2
2018-07-13T21:22:06.978Z,23.1
2018-07-13T21:23:08.287Z,23.2
2018-07-13T21:24:09.616Z,23.1
2018-07-13T21:25:10.926Z,23.1
2018-07-13T21:26:12.247Z,23.1
2018-07-13T21:27:14.267Z,23.1
2018-07-13T21:28:15.616Z,22.9
2018-07-13T21:29:17.005Z,23.0
2018-07-13T21:30:18.338Z,22.9
2018-07-13T21:31:19.712Z,22.8
2018-07-13T21:32:21.056Z,22.9
2018-07-13T21:33:22.371Z,22.8
2018-07-13T21:34:23.686Z,22.9
2018-07-13T21:35:24.994Z,22.8
2018-07-13T21:36:26.316Z,22.8
2018-07-13T21:37:27.627Z,22.7
2018-07-13T21:38:28.977Z,22.7
2018-07-13T21:39:30.316Z,22.6
2018-07-13T21:40:31.635Z,22.6
2018-07-13T21:41:32.952Z,22.6
2018-07-13T21:42:34.286Z,22.6
2018-07-13T21:43:35.608Z,22.5
2018-07-13T21:44:36.922Z,22.5
2018-07-13T21:45:38.230Z,22.5
2018-07-13T21:46:39.556Z,22.5
2018-07-13T21:47:40.853Z,22.5
2018-07-13T21:48:42.182Z,22.5
2018-07-13T21:49:43.564Z,22.4
2018-07-13T21:50:44.937Z,22.4
2018-07-13T21:51:46.342Z,22.4
2018-07-13T21:52:47.671Z,22.4
2018-07-13T21:53:49.121Z,22.3
2018-07-13T21:54:50.471Z,22.4
2018-07-13T21:55:51.794Z,22.2
2018-07-13T21:56:53.111Z,22.4
2018-07-13T21:57:54.437Z,22.2
2018-07-13T21:58:55.763Z,22.2
2018-07-13T21:59:57.073Z,22.2
2018-07-13T22:00:58.388Z,22.2
2018-07-13T22:01:59.697Z,22.1
2018-07-13T22:03:01.022Z,22.2
2018-07-13T22:04:02.347Z,22.1
2018-07-13T22:05:03.652Z,22.1
2018-07-13T22:06:04.968Z,22.1
2018-07-13T22:07:06.278Z,22.1
2018-07-13T22:08:07.599Z,22.1
2018-07-13T22:09:08.903Z,22.2
2018-07-13T22:10:10.226Z,22.1
2018-07-13T22:11:11.537Z,22.0
2018-07-13T22:12:12.858Z,22.0
2018-07-13T22:13:14.238Z,22.0
2018-07-13T22:14:15.551Z,22.0
2018-07-13T22:15:16.897Z,22.0
2018-07-13T22:16:18.284Z,21.9
2018-07-13T22:17:19.643Z,21.9
2018-07-13T22:18:20.993Z,21.9
2018-07-13T22:19:22.337Z,21.9
2018-07-13T22:20:23.661Z,21.9
2018-07-13T22:21:24.981Z,21.9
2018-07-13T22:22:26.298Z,21.8
2018-07-13T22:23:27.601Z,21.9
2018-07-13T22:24:28.918Z,21.9
2018-07-13T22:25:30.248Z,21.8
2018-07-13T22:26:31.617Z,21.8
2018-07-13T22:27:32.876Z,21.8
2018-07-13T22:28:34.182Z,21.8
2018-07-13T22:29:35.503Z,21.7
2018-07-13T22:30:36.822Z,21.8
2018-07-13T22:31:38.258Z,21.8
2018-07-13T22:32:39.591Z,21.7
2018-07-13T22:33:40.889Z,21.7
2018-07-13T22:34:42.202Z,21.7
2018-07-13T22:35:43.589Z,21.7
2018-07-13T22:36:44.929Z,21.7
2018-07-13T22:37:46.303Z,21.5
2018-07-13T22:38:47.628Z,21.6
2018-07-13T22:39:48.957Z,21.6
2018-07-13T22:40:50.434Z,21.6
2018-07-13T22:41:51.760Z,21.5
2018-07-13T22:42:53.070Z,21.5
2018-07-13T22:43:54.398Z,21.5
2018-07-13T22:44:55.713Z,21.5
2018-07-13T22:45:57.037Z,21.5
2018-07-13T22:46:58.365Z,21.4
2018-07-13T22:47:59.678Z,21.3
2018-07-13T22:49:00.997Z,21.4
2018-07-13T22:50:02.305Z,21.4
2018-07-13T22:51:03.663Z,21.4
2018-07-13T22:52:04.935Z,21.4
2018-07-13T22:53:06.251Z,21.3
2018-07-13T22:54:07.576Z,21.3
2018-07-13T22:55:08.943Z,21.3
2018-07-13T22:56:10.207Z,21.4
2018-07-13T22:57:11.518Z,21.3
2018-07-13T22:58:12.833Z,21.3
2018-07-13T22:59:14.233Z,21.2
2018-07-13T23:00:15.555Z,21.3
2018-07-13T23:01:16.909Z,21.2
2018-07-13T23:02:18.242Z,21.2
2018-07-13T23:03:19.583Z,21.1
2018-07-13T23:04:20.917Z,21.1
2018-07-13T23:05:22.228Z,21.1
2018-07-13T23:06:23.549Z,21.1
2018-07-13T23:07:24.865Z,21.1
2018-07-13T23:08:26.177Z,20.9
2018-07-13T23:09:27.493Z,21.0
2018-07-13T23:10:28.803Z,21.0
2018-07-13T23:11:30.123Z,20.9
2018-07-13T23:12:31.435Z,20.9
2018-07-13T23:13:32.750Z,20.9
2018-07-13T23:14:34.059Z,20.8
2018-07-13T23:15:35.378Z,20.8
2018-07-13T23:16:36.699Z,20.9
2018-07-13T23:17:38.003Z,20.9
2018-07-13T23:18:39.309Z,20.8
2018-07-13T23:19:40.621Z,20.9
2018-07-13T23:20:41.931Z,20.8
2018-07-13T23:21:44.018Z,20.7
2018-07-13T23:22:45.392Z,20.8
2018-07-13T23:23:47.291Z,20.7
2018-07-13T23:24:48.591Z,20.7
2018-07-13T23:25:49.925Z,20.7
2018-07-13T23:26:52.442Z,20.7
2018-07-13T23:27:53.770Z,20.7
2018-07-13T23:28:55.075Z,20.7
2018-07-13T23:29:56.400Z,20.7
2018-07-13T23:30:57.713Z,20.6
2018-07-13T23:31:59.024Z,20.6
2018-07-13T23:33:00.335Z,20.5
2018-07-13T23:34:01.640Z,20.5
2018-07-13T23:35:02.963Z,20.5
2018-07-13T23:36:04.270Z,20.6
2018-07-13T23:37:05.594Z,20.6
2018-07-13T23:38:06.905Z,20.5
2018-07-13T23:39:08.213Z,20.5
2018-07-13T23:40:09.534Z,20.5
2018-07-13T23:41:10.850Z,20.4
2018-07-13T23:42:12.173Z,20.5
2018-07-13T23:43:14.245Z,20.4
2018-07-13T23:44:15.581Z,20.4
2018-07-13T23:45:16.908Z,20.4
2018-07-13T23:46:18.255Z,20.4
2018-07-13T23:47:19.625Z,20.4
2018-07-13T23:48:21.013Z,20.4
2018-07-13T23:49:22.319Z,20.4
2018-07-13T23:50:23.634Z,20.4
2018-07-13T23:51:24.955Z,20.4
2018-07-13T23:52:26.266Z,20.4
2018-07-13T23:53:27.573Z,20.4
2018-07-13T23:54:28.897Z,20.4
2018-07-13T23:55:30.200Z,20.4
2018-07-13T23:56:31.512Z,20.4
2018-07-13T23:57:32.825Z,20.4
2018-07-13T23:58:34.183Z,20.4
2018-07-13T23:59:35.449Z,20.3
